Airfield :
LOGIN :

Register | Disclaimer

   EN    FR    IT 

 










Legend :    VFR   Marginal VFR   IFR   Intensive IFR   Very Intensive IFR
Visi :
Ceiling :
>= 8 km
>= 3000ft
5 to 8 km
1000 to 3000 ft
1500m to 5 km
500 to 1000 ft
800 to 1500m
200 to 500 ft
< 800m
< 200 ft
Symbols :   Thunderstorms  Fog  Heavy snow  Heavy precipitations  Wind > 20 kt
SIGMETs :     Misc.  Thunderstorms  Icing  Turbulence  Mountain Waves  Volcanic Ashes







- Airport Elevation : 288 ft
- IATA code : BZZ


EGVN - RAF Brize Norton

CURRENT METAR :
  • 151950Z 27002KT 9999 FEW022 BKN033 19/14 Q1023 TEMPO SCT022 RMK BLU TEMPO WHT

EXPIRED METARs :
  • 151920Z 32005KT 9999 FEW026 BKN032 19/14 Q1023 NOSIG RMK BLU BLU
  • 151850Z 29002KT 9999 FEW026 BKN032 20/15 Q1023 NOSIG
  • 151750Z 32005KT 9999 FEW032 BKN250 21/15 Q1022 NOSIG RMK BLU BLU
  • 151720Z 31004KT 9999 FEW030 BKN250 21/14 Q1022 NOSIG

TAF TAF EGVN
Valid from the 15 at 18:00 until the 16 at 18:00 UTC


151637Z 1518/1618 27005KT 9999 SCT030
PROB30
TEMPO 1521/1606 FEW014 SCT020
PROB40
TEMPO 1606/1608 SCT010 BKN015
BECMG 1608/1611 BKN010
PROB40
TEMPO 1609/1618 4000 -RADZ
PROB30
TEMPO 1611/1618 2500 RADZ SCT006
No reported NOTAMs for that airfield.



MET'MAP, your aeronautical weather chart ! - Copyright ORBIFLY December 2007 - Disclaimer

ORBIFLY MET'MAP TEAM :

Programming & Development : Alexandra Zaïnal
Concept & Development : Baudouin d'Aumeries
Co-Development & Prog : Marc-Olivier Méhu
Technical & hardware support : Manuel Goepfert

Contact : metmap@orbifly.com




SOURCES & CREDITS :

   NOAA